Smugglers Notch, Vermont
Current Conditions -  °F | °C
As of 5:54 PM on Monday 22 Dec 2014 (Local Time) from KMVL Reporting Station
Overcast Overcast  
Wind Chill: 31°   Ceiling: 3900
Heat Index: 31°   Visibility: 10mi
Dew Point: 26°   Wind: 0mph
Humidity: 82%   Direction: NA
Pressure: 30.31"   Gusts: NA
Location:  44.6639°N, 72.7787°W
Report Text: KMVL 222254Z AUTO 00000KT 10SM SCT033 OVC039 M01/M03 A3031 RMK AO2 SLP278 T10061033 TSNO
Loading
Personal Weather Stations






























Interactive Weather Map New forecast layout! Learn more

10-Day Weather Forecast

Advertisements
Track Severe Weather on mobile